createdAt,value
2019-01-20T00:01:00.000Z,-0.1
2019-01-20T00:06:00.000Z,-0.1
2019-01-20T00:11:00.000Z,-0.1
2019-01-20T00:16:00.000Z,-0.0
2019-01-20T00:21:00.000Z,0.0
2019-01-20T00:26:00.000Z,0.1
2019-01-20T00:31:00.000Z,0.1
2019-01-20T00:36:00.000Z,0.1
2019-01-20T00:41:00.000Z,0.1
2019-01-20T00:46:00.000Z,0.1
2019-01-20T00:51:00.000Z,0.1
2019-01-20T00:56:00.000Z,0.1
2019-01-20T01:01:00.000Z,0.1
2019-01-20T01:06:00.000Z,0.1
2019-01-20T01:11:00.000Z,0.1
2019-01-20T01:16:00.000Z,0.0
2019-01-20T01:21:00.000Z,-0.0
2019-01-20T01:26:00.000Z,-0.0
2019-01-20T01:31:00.000Z,-0.1
2019-01-20T01:36:00.000Z,-0.1
2019-01-20T01:41:00.000Z,-0.2
2019-01-20T01:46:00.000Z,-0.2
2019-01-20T01:51:00.000Z,-0.2
2019-01-20T01:56:00.000Z,-0.2
2019-01-20T02:01:00.000Z,-0.1
2019-01-20T02:06:00.000Z,-0.1
2019-01-20T02:11:00.000Z,-0.1
2019-01-20T02:16:00.000Z,-0.1
2019-01-20T02:21:00.000Z,-0.1
2019-01-20T02:26:00.000Z,-0.1
2019-01-20T02:31:00.000Z,-0.1
2019-01-20T02:36:00.000Z,-0.1
2019-01-20T02:41:00.000Z,-0.1
2019-01-20T02:46:00.000Z,-0.1
2019-01-20T02:51:00.000Z,-0.1
2019-01-20T02:56:00.000Z,-0.0
2019-01-20T03:01:00.000Z,-0.0
2019-01-20T03:06:00.000Z,0.0
2019-01-20T03:11:00.000Z,0.1
2019-01-20T03:17:00.000Z,0.2
2019-01-20T03:22:00.000Z,0.2
2019-01-20T03:27:00.000Z,0.3
2019-01-20T03:32:00.000Z,0.4
2019-01-20T03:37:00.000Z,0.4
2019-01-20T03:42:00.000Z,0.5
2019-01-20T03:47:00.000Z,0.6
2019-01-20T03:52:00.000Z,0.7
2019-01-20T03:57:00.000Z,0.8
2019-01-20T04:02:00.000Z,0.8
2019-01-20T04:07:00.000Z,0.8
2019-01-20T04:12:00.000Z,0.8
2019-01-20T04:17:00.000Z,0.8
2019-01-20T04:22:00.000Z,0.8
2019-01-20T04:27:00.000Z,0.8
2019-01-20T04:32:00.000Z,0.8
2019-01-20T04:37:00.000Z,0.8
2019-01-20T04:42:00.000Z,0.7
2019-01-20T04:47:00.000Z,0.7
2019-01-20T04:52:00.000Z,0.7
2019-01-20T04:57:00.000Z,0.6
2019-01-20T05:02:00.000Z,0.6
2019-01-20T05:07:00.000Z,0.6
2019-01-20T05:12:00.000Z,0.6
2019-01-20T05:17:00.000Z,0.6
2019-01-20T05:22:00.000Z,0.7
2019-01-20T05:27:00.000Z,0.7
2019-01-20T05:32:00.000Z,0.8
2019-01-20T05:37:00.000Z,0.8
2019-01-20T05:42:00.000Z,0.8
2019-01-20T05:47:00.000Z,0.8
2019-01-20T05:52:00.000Z,0.8
2019-01-20T05:57:00.000Z,0.8
2019-01-20T06:02:00.000Z,0.8
2019-01-20T06:07:00.000Z,0.8
2019-01-20T06:12:00.000Z,0.8
2019-01-20T06:17:00.000Z,0.8
2019-01-20T06:22:00.000Z,0.9
2019-01-20T06:27:00.000Z,0.9
2019-01-20T06:32:00.000Z,0.9
2019-01-20T06:37:00.000Z,1.0
2019-01-20T06:42:00.000Z,1.1
2019-01-20T06:48:00.000Z,1.2
2019-01-20T06:53:00.000Z,1.2
2019-01-20T06:58:00.000Z,1.3
2019-01-20T07:03:00.000Z,1.4
2019-01-20T07:08:00.000Z,1.4
2019-01-20T07:13:00.000Z,1.4
2019-01-20T07:18:00.000Z,1.3
2019-01-20T07:23:00.000Z,1.2
2019-01-20T07:28:00.000Z,1.2
2019-01-20T07:33:00.000Z,1.2
2019-01-20T07:38:00.000Z,1.2
2019-01-20T07:43:00.000Z,1.3
2019-01-20T07:48:00.000Z,1.4
2019-01-20T07:53:00.000Z,1.4
2019-01-20T07:58:00.000Z,1.4
2019-01-20T08:03:00.000Z,1.4
2019-01-20T08:08:00.000Z,1.5
2019-01-20T08:13:00.000Z,1.5
2019-01-20T08:18:00.000Z,1.5
2019-01-20T08:23:00.000Z,1.5
2019-01-20T08:28:00.000Z,1.6
2019-01-20T08:33:00.000Z,1.7
2019-01-20T08:38:00.000Z,1.8
2019-01-20T08:43:00.000Z,1.9
2019-01-20T08:48:00.000Z,2.0
2019-01-20T08:53:00.000Z,2.1
2019-01-20T08:58:00.000Z,2.1
2019-01-20T09:03:00.000Z,2.0
2019-01-20T09:08:00.000Z,2.0
2019-01-20T09:13:00.000Z,2.0
2019-01-20T09:18:00.000Z,2.0
2019-01-20T09:23:00.000Z,2.1
2019-01-20T09:28:00.000Z,2.1
2019-01-20T09:33:00.000Z,2.2
2019-01-20T09:38:00.000Z,2.2
2019-01-20T09:43:00.000Z,2.3
2019-01-20T09:48:00.000Z,2.4
2019-01-20T09:53:00.000Z,2.5
2019-01-20T09:58:00.000Z,2.6
2019-01-20T10:03:00.000Z,2.5
2019-01-20T10:08:00.000Z,2.5
2019-01-20T10:13:00.000Z,2.6
2019-01-20T10:18:00.000Z,2.6
2019-01-20T10:23:00.000Z,2.5
2019-01-20T10:28:00.000Z,2.6
2019-01-20T10:33:00.000Z,2.5
2019-01-20T10:38:00.000Z,2.7
2019-01-20T10:43:00.000Z,2.9
2019-01-20T10:49:00.000Z,3.0
2019-01-20T10:54:00.000Z,3.0
2019-01-20T10:59:00.000Z,2.9
2019-01-20T11:04:00.000Z,2.9
2019-01-20T11:09:00.000Z,2.8
2019-01-20T11:14:00.000Z,2.8
2019-01-20T11:19:00.000Z,2.7
2019-01-20T11:24:00.000Z,2.8
2019-01-20T11:29:00.000Z,2.8
2019-01-20T11:34:00.000Z,2.9
2019-01-20T11:39:00.000Z,2.9
2019-01-20T11:44:00.000Z,3.1
2019-01-20T11:49:00.000Z,3.1
2019-01-20T11:54:00.000Z,3.0
2019-01-20T11:59:00.000Z,2.9
2019-01-20T12:04:00.000Z,2.8
2019-01-20T12:09:00.000Z,2.7
2019-01-20T12:14:00.000Z,2.7
2019-01-20T12:19:00.000Z,2.9
2019-01-20T12:24:00.000Z,3.0
2019-01-20T12:29:00.000Z,3.1
2019-01-20T12:34:00.000Z,3.2
2019-01-20T12:39:00.000Z,3.2
2019-01-20T12:44:00.000Z,3.2
2019-01-20T12:49:00.000Z,3.3
2019-01-20T12:54:00.000Z,3.3
2019-01-20T12:59:00.000Z,3.4
2019-01-20T13:04:00.000Z,3.4
2019-01-20T13:09:00.000Z,3.2
2019-01-20T13:14:00.000Z,3.2
2019-01-20T13:19:00.000Z,3.2
2019-01-20T13:24:00.000Z,3.2
2019-01-20T13:29:00.000Z,3.1
2019-01-20T13:34:00.000Z,3.0
2019-01-20T13:39:00.000Z,2.9
2019-01-20T13:44:00.000Z,3.0
2019-01-20T13:49:00.000Z,3.0
2019-01-20T13:54:00.000Z,2.9
2019-01-20T13:59:00.000Z,3.0
2019-01-20T14:04:00.000Z,2.9
2019-01-20T14:09:00.000Z,2.9
2019-01-20T14:14:00.000Z,3.0
2019-01-20T14:19:00.000Z,2.9
2019-01-20T14:24:00.000Z,3.0
2019-01-20T14:29:00.000Z,3.0
2019-01-20T14:34:00.000Z,3.0
2019-01-20T14:39:00.000Z,3.0
2019-01-20T14:44:00.000Z,2.8
2019-01-20T14:50:00.000Z,2.6
2019-01-20T14:55:00.000Z,2.5
2019-01-20T15:00:00.000Z,2.3
2019-01-20T15:05:00.000Z,2.1
2019-01-20T15:10:00.000Z,2.0
2019-01-20T15:15:00.000Z,1.9
2019-01-20T15:20:00.000Z,1.8
2019-01-20T15:25:00.000Z,1.6
2019-01-20T15:30:00.000Z,1.5
2019-01-20T15:35:00.000Z,1.4
2019-01-20T15:40:00.000Z,1.5
2019-01-20T15:45:00.000Z,1.5
2019-01-20T15:50:00.000Z,1.4
2019-01-20T15:55:00.000Z,1.4
2019-01-20T16:00:00.000Z,1.3
2019-01-20T16:05:00.000Z,1.2
2019-01-20T16:10:00.000Z,1.2
2019-01-20T16:15:00.000Z,1.1
2019-01-20T16:20:00.000Z,1.1
2019-01-20T16:25:00.000Z,1.0
2019-01-20T16:30:00.000Z,1.0
2019-01-20T16:35:00.000Z,1.0
2019-01-20T16:40:00.000Z,1.1
2019-01-20T16:45:00.000Z,1.1
2019-01-20T16:50:00.000Z,1.1
2019-01-20T16:55:00.000Z,1.1
2019-01-20T17:00:00.000Z,1.1
2019-01-20T17:05:00.000Z,1.2
2019-01-20T17:10:00.000Z,1.1
2019-01-20T17:15:00.000Z,1.1
2019-01-20T17:20:00.000Z,1.2
2019-01-20T17:25:00.000Z,1.2
2019-01-20T17:30:00.000Z,1.2
2019-01-20T17:35:00.000Z,1.2
2019-01-20T17:40:00.000Z,1.2
2019-01-20T17:45:00.000Z,1.2
2019-01-20T17:50:00.000Z,1.3
2019-01-20T17:55:00.000Z,1.3
2019-01-20T18:00:00.000Z,1.3
2019-01-20T18:05:00.000Z,1.3
2019-01-20T18:10:00.000Z,1.3
2019-01-20T18:15:00.000Z,1.3
2019-01-20T18:20:00.000Z,1.3
2019-01-20T18:25:00.000Z,1.2
2019-01-20T18:30:00.000Z,1.2
2019-01-20T18:35:00.000Z,1.1
2019-01-20T18:41:00.000Z,1.0
2019-01-20T18:46:00.000Z,1.0
2019-01-20T18:51:00.000Z,1.0
2019-01-20T18:56:00.000Z,1.0
2019-01-20T19:01:00.000Z,1.0
2019-01-20T19:06:00.000Z,1.0
2019-01-20T19:11:00.000Z,0.9
2019-01-20T19:16:00.000Z,0.8
2019-01-20T19:21:00.000Z,0.8
2019-01-20T19:26:00.000Z,0.9
2019-01-20T19:31:00.000Z,0.9
2019-01-20T19:36:00.000Z,0.9
2019-01-20T19:41:00.000Z,0.8
2019-01-20T19:46:00.000Z,0.8
2019-01-20T19:51:00.000Z,0.8
2019-01-20T19:56:00.000Z,0.8
2019-01-20T20:01:00.000Z,0.8
2019-01-20T20:06:00.000Z,0.8
2019-01-20T20:11:00.000Z,0.8
2019-01-20T20:16:00.000Z,0.8
2019-01-20T20:21:00.000Z,0.8
2019-01-20T20:26:00.000Z,0.7
2019-01-20T20:31:00.000Z,0.7
2019-01-20T20:36:00.000Z,0.6
2019-01-20T20:41:00.000Z,0.5
2019-01-20T20:46:00.000Z,0.5
2019-01-20T20:51:00.000Z,0.5
2019-01-20T20:56:00.000Z,0.4
2019-01-20T21:01:00.000Z,0.4
2019-01-20T21:06:00.000Z,0.3
2019-01-20T21:11:00.000Z,0.4
2019-01-20T21:16:00.000Z,0.4
2019-01-20T21:21:00.000Z,0.4
2019-01-20T21:26:00.000Z,0.4
2019-01-20T21:31:00.000Z,0.4
2019-01-20T21:36:00.000Z,0.3
2019-01-20T21:41:00.000Z,0.3
2019-01-20T21:46:00.000Z,0.2
2019-01-20T21:51:00.000Z,0.1
2019-01-20T21:56:00.000Z,0.1
2019-01-20T22:01:00.000Z,0.0
2019-01-20T22:06:00.000Z,0.0
2019-01-20T22:11:00.000Z,-0.0
2019-01-20T22:16:00.000Z,-0.0
2019-01-20T22:21:00.000Z,-0.0
2019-01-20T22:26:00.000Z,-0.0
2019-01-20T22:31:00.000Z,-0.0
2019-01-20T22:36:00.000Z,-0.1
2019-01-20T22:41:00.000Z,-0.1
2019-01-20T22:46:00.000Z,-0.1
2019-01-20T22:52:00.000Z,-0.2
2019-01-20T22:57:00.000Z,-0.2
2019-01-20T23:02:00.000Z,-0.3
2019-01-20T23:07:00.000Z,-0.3
2019-01-20T23:12:00.000Z,-0.4
2019-01-20T23:17:00.000Z,-0.5
2019-01-20T23:22:00.000Z,-0.5
2019-01-20T23:27:00.000Z,-0.6
2019-01-20T23:32:00.000Z,-0.6
2019-01-20T23:37:00.000Z,-0.7
2019-01-20T23:42:00.000Z,-0.6
2019-01-20T23:47:00.000Z,-0.6
2019-01-20T23:52:00.000Z,-0.6
2019-01-20T23:57:00.000Z,-0.7
